createdAt,value
2017-04-04T00:00:05.637Z,58.11
2017-04-04T00:00:27.402Z,58.27
2017-04-04T00:00:53.865Z,58.52
2017-04-04T00:01:15.632Z,58.68
2017-04-04T00:01:37.340Z,58.43
2017-04-04T00:02:08.625Z,58.24
2017-04-04T00:02:30.298Z,58.30
2017-04-04T00:02:52.096Z,58.36
2017-04-04T00:03:50.345Z,58.39
2017-04-04T00:04:12.138Z,58.28
2017-04-04T00:04:43.417Z,58.36
2017-04-04T00:05:05.151Z,58.57
2017-04-04T00:05:31.717Z,58.70
2017-04-04T00:05:53.443Z,58.71
2017-04-04T00:06:19.951Z,58.37
2017-04-04T00:06:41.662Z,58.62
2017-04-04T00:07:08.179Z,58.93
2017-04-04T00:07:29.908Z,58.80
2017-04-04T00:07:56.393Z,58.47
2017-04-04T00:08:18.187Z,58.78
2017-04-04T00:08:39.911Z,58.96
2017-04-04T00:09:01.626Z,60.03
2017-04-04T00:09:28.220Z,61.21
2017-04-04T00:09:49.974Z,60.96
2017-04-04T00:10:11.680Z,60.87
2017-04-04T00:10:33.396Z,60.78
2017-04-04T00:10:55.098Z,60.45
2017-04-04T00:11:54.410Z,61.52
2017-04-04T00:12:21.030Z,62.20
2017-04-04T00:12:42.738Z,62.67
2017-04-04T00:13:09.223Z,62.83
2017-04-04T00:13:30.946Z,62.92
2017-04-04T00:13:52.692Z,63.18
2017-04-04T00:14:23.965Z,62.97
2017-04-04T00:14:45.656Z,62.16
2017-04-04T00:15:17.041Z,61.34
2017-04-04T00:15:38.669Z,61.03
2017-04-04T00:16:05.150Z,60.55
2017-04-04T00:16:26.866Z,60.27
2017-04-04T00:16:53.349Z,59.90
2017-04-04T00:17:19.846Z,59.90
2017-04-04T00:17:46.353Z,59.89
2017-04-04T00:18:08.166Z,59.92
2017-04-04T00:18:34.639Z,59.82
2017-04-04T00:18:56.346Z,59.78
2017-04-04T00:19:22.867Z,59.41
2017-04-04T00:19:44.577Z,59.33
2017-04-04T00:20:11.068Z,59.51
2017-04-04T00:20:32.795Z,59.61
2017-04-04T00:20:54.503Z,59.36
2017-04-04T00:21:56.996Z,59.46
2017-04-04T00:22:28.277Z,59.54
2017-04-04T00:22:49.963Z,59.57
2017-04-04T00:23:48.239Z,59.91
2017-04-04T00:24:14.728Z,59.81
2017-04-04T00:24:46.102Z,59.46
2017-04-04T00:25:07.742Z,59.62
2017-04-04T00:25:29.470Z,59.49
2017-04-04T00:25:51.190Z,59.50
2017-04-04T00:26:12.963Z,59.13
2017-04-04T00:26:44.247Z,59.27
2017-04-04T00:27:05.947Z,59.29
2017-04-04T00:27:32.554Z,59.53
2017-04-04T00:27:54.257Z,59.67
2017-04-04T00:28:56.868Z,59.96
2017-04-04T00:29:18.579Z,59.68
2017-04-04T00:29:40.294Z,59.58
2017-04-04T00:30:38.715Z,59.49
2017-04-04T00:31:00.440Z,59.22
2017-04-04T00:32:07.717Z,59.00
2017-04-04T00:32:29.416Z,58.91
2017-04-04T00:33:31.923Z,60.00
2017-04-04T00:33:53.634Z,59.80
2017-04-04T00:35:00.910Z,59.57
2017-04-04T00:35:22.633Z,59.46
2017-04-04T00:36:21.270Z,59.29
2017-04-04T00:36:43.055Z,59.30
2017-04-04T00:37:07.456Z,59.02
2017-04-04T00:37:29.177Z,59.16
2017-04-04T00:38:00.629Z,59.47
2017-04-04T00:38:22.299Z,59.36
2017-04-04T00:39:24.924Z,58.91
2017-04-04T00:39:51.418Z,59.63
2017-04-04T00:40:17.896Z,60.73
2017-04-04T00:40:39.652Z,61.28
2017-04-04T00:41:01.354Z,61.14
2017-04-04T00:41:23.062Z,61.05
2017-04-04T00:41:49.631Z,60.67
2017-04-04T00:42:11.340Z,60.57
2017-04-04T00:42:33.114Z,60.54
2017-04-04T00:43:31.536Z,60.03
2017-04-04T00:43:53.253Z,59.99
2017-04-04T00:44:14.971Z,59.95
2017-04-04T00:45:13.364Z,60.02
2017-04-04T00:45:35.073Z,59.94
2017-04-04T00:46:01.655Z,59.81
2017-04-04T00:46:23.406Z,59.85
2017-04-04T00:46:45.181Z,59.64
2017-04-04T00:47:06.883Z,59.53
2017-04-04T00:47:28.671Z,59.53
2017-04-04T00:47:55.171Z,59.65
2017-04-04T00:48:16.867Z,59.51
2017-04-04T00:48:43.405Z,59.47
2017-04-04T00:49:05.112Z,59.63
2017-04-04T00:49:31.625Z,59.64
2017-04-04T00:49:53.349Z,59.58
2017-04-04T00:50:19.888Z,59.66
2017-04-04T00:50:41.580Z,59.88
2017-04-04T00:51:03.273Z,59.82
2017-04-04T00:51:29.766Z,59.91
2017-04-04T00:51:51.516Z,60.02
2017-04-04T00:52:17.990Z,59.92
2017-04-04T00:52:39.704Z,59.80
2017-04-04T00:53:06.250Z,59.86
2017-04-04T00:53:27.953Z,60.33
2017-04-04T00:53:59.207Z,60.48
2017-04-04T00:54:20.976Z,60.52
2017-04-04T00:55:19.272Z,60.44
2017-04-04T00:56:21.792Z,60.23
2017-04-04T00:56:43.491Z,59.84
2017-04-04T00:57:05.213Z,59.74
2017-04-04T00:57:36.486Z,59.64
2017-04-04T00:57:58.184Z,59.79
2017-04-04T00:58:24.674Z,59.71
2017-04-04T00:58:46.483Z,59.86
2017-04-04T00:59:48.953Z,60.47
2017-04-04T01:01:22.830Z,59.83
2017-04-04T01:01:44.537Z,59.67
2017-04-04T01:02:11.012Z,59.69
2017-04-04T01:02:32.734Z,59.69
2017-04-04T01:02:54.527Z,59.86
2017-04-04T01:03:21.018Z,60.26
2017-04-04T01:03:42.733Z,60.53
2017-04-04T01:04:09.299Z,60.74
2017-04-04T01:04:31.018Z,60.61
2017-04-04T01:04:52.721Z,60.76
2017-04-04T01:05:51.182Z,60.58
2017-04-04T01:06:12.885Z,60.63
2017-04-04T01:07:11.358Z,60.32
2017-04-04T01:07:33.214Z,60.40
2017-04-04T01:08:04.615Z,60.83
2017-04-04T01:08:26.352Z,60.95
2017-04-04T01:08:48.144Z,60.87
2017-04-04T01:09:46.422Z,60.20
2017-04-04T01:10:08.192Z,60.42
2017-04-04T01:11:06.540Z,61.08
2017-04-04T01:11:33.095Z,61.21
2017-04-04T01:11:59.572Z,60.79
2017-04-04T01:12:21.265Z,60.68
2017-04-04T01:12:52.646Z,60.65
2017-04-04T01:13:14.378Z,60.58
2017-04-04T01:13:45.660Z,60.27
2017-04-04T01:14:07.464Z,60.29
2017-04-04T01:14:29.177Z,60.29
2017-04-04T01:14:50.879Z,60.26
2017-04-04T01:15:12.598Z,60.46
2017-04-04T01:15:39.199Z,61.15
2017-04-04T01:16:00.904Z,61.59
2017-04-04T01:16:22.610Z,61.71
2017-04-04T01:16:49.102Z,61.79
2017-04-04T01:17:10.897Z,61.90
2017-04-04T01:17:42.199Z,61.76
2017-04-04T01:18:03.912Z,61.63
2017-04-04T01:18:30.476Z,61.39
2017-04-04T01:18:52.185Z,61.36
2017-04-04T01:19:18.681Z,61.34
2017-04-04T01:19:40.372Z,61.48
2017-04-04T01:20:02.147Z,61.67
2017-04-04T01:20:33.456Z,61.59
2017-04-04T01:20:55.140Z,61.44
2017-04-04T01:21:26.430Z,61.50
2017-04-04T01:21:48.128Z,61.81
2017-04-04T01:22:09.838Z,62.01
2017-04-04T01:22:31.544Z,62.28
2017-04-04T01:22:53.301Z,62.17
2017-04-04T01:23:15.003Z,62.07
2017-04-04T01:23:36.709Z,61.98
2017-04-04T01:23:58.421Z,62.35
2017-04-04T01:24:59.121Z,62.01
2017-04-04T01:25:25.597Z,62.12
2017-04-04T01:25:47.367Z,62.08
2017-04-04T01:26:09.085Z,62.21
2017-04-04T01:26:30.792Z,62.09
2017-04-04T01:27:02.042Z,61.83
2017-04-04T01:27:23.736Z,61.65
2017-04-04T01:27:45.434Z,61.79
2017-04-04T01:28:19.576Z,61.77
2017-04-04T01:28:46.011Z,61.83
2017-04-04T01:29:07.768Z,61.88
2017-04-04T01:29:29.564Z,61.57
2017-04-04T01:29:56.051Z,61.97
2017-04-04T01:30:17.767Z,62.52
2017-04-04T01:30:39.541Z,62.41
2017-04-04T01:31:01.270Z,62.38
2017-04-04T01:31:22.961Z,62.40
2017-04-04T01:31:44.653Z,62.75
2017-04-04T01:32:06.420Z,63.46
2017-04-04T01:32:28.118Z,64.25
2017-04-04T01:32:49.846Z,65.41
2017-04-04T01:33:16.389Z,65.50
2017-04-04T01:33:38.094Z,65.50
2017-04-04T01:33:59.794Z,66.04
2017-04-04T01:34:26.273Z,66.40
2017-04-04T01:34:47.974Z,66.99
2017-04-04T01:35:09.669Z,66.62
2017-04-04T01:35:31.381Z,66.56
2017-04-04T01:35:53.073Z,66.54
2017-04-04T01:36:55.589Z,65.14
2017-04-04T01:37:54.027Z,65.40
2017-04-04T01:38:52.279Z,64.60
2017-04-04T01:39:53.576Z,63.92
2017-04-04T01:40:24.970Z,65.08
2017-04-04T01:40:46.617Z,65.71
2017-04-04T01:41:44.964Z,66.85
2017-04-04T01:42:06.673Z,66.33
2017-04-04T01:43:05.023Z,65.21
2017-04-04T01:44:03.224Z,64.33
2017-04-04T01:45:10.514Z,63.60
2017-04-04T01:45:32.231Z,63.63
2017-04-04T01:46:03.617Z,63.61
2017-04-04T01:46:25.297Z,63.30
2017-04-04T01:46:47.002Z,62.83
2017-04-04T01:47:11.573Z,63.01
2017-04-04T01:47:33.278Z,62.88
2017-04-04T01:48:04.543Z,63.15
2017-04-04T01:48:38.138Z,63.15
2017-04-04T01:48:59.758Z,62.94
2017-04-04T01:49:21.474Z,63.21
2017-04-04T01:49:43.175Z,63.74
2017-04-04T01:50:04.975Z,64.15
2017-04-04T01:50:26.682Z,64.80
2017-04-04T01:50:53.174Z,65.86
2017-04-04T01:51:14.876Z,66.79
2017-04-04T01:51:36.672Z,67.42
2017-04-04T01:52:03.156Z,67.66
2017-04-04T01:52:24.921Z,67.18
2017-04-04T01:52:51.518Z,66.44
2017-04-04T01:53:13.211Z,65.93
2017-04-04T01:53:39.690Z,65.46
2017-04-04T01:54:01.451Z,65.44
2017-04-04T01:54:27.946Z,65.26
2017-04-04T01:54:49.645Z,64.72
2017-04-04T01:55:16.179Z,64.77
2017-04-04T01:55:37.890Z,64.41
2017-04-04T01:56:04.362Z,64.13
2017-04-04T01:56:26.151Z,64.19
2017-04-04T01:56:47.966Z,64.04
2017-04-04T01:57:36.151Z,63.71
2017-04-04T01:58:02.701Z,63.45
2017-04-04T01:58:24.438Z,63.19
2017-04-04T01:58:51.002Z,63.19
2017-04-04T01:59:12.779Z,63.31
2017-04-04T01:59:39.371Z,64.59
2017-04-04T02:00:01.069Z,65.21
2017-04-04T02:00:22.778Z,65.15
2017-04-04T02:00:49.343Z,64.48
2017-04-04T02:01:11.038Z,63.96
2017-04-04T02:01:32.740Z,63.67
2017-04-04T02:01:54.474Z,63.60
2017-04-04T02:02:16.248Z,63.64
2017-04-04T02:02:37.946Z,63.47
2017-04-04T02:03:09.192Z,63.70
2017-04-04T02:03:30.977Z,64.37
2017-04-04T02:03:52.716Z,65.01
2017-04-04T02:04:19.270Z,64.85
2017-04-04T02:04:41.061Z,64.62
2017-04-04T02:05:02.843Z,64.42
2017-04-04T02:05:24.542Z,64.33
2017-04-04T02:05:46.242Z,64.33
2017-04-04T02:06:12.819Z,64.06
2017-04-04T02:06:34.518Z,64.38
2017-04-04T02:06:56.243Z,64.54
2017-04-04T02:07:22.815Z,64.76
2017-04-04T02:07:47.485Z,64.39
2017-04-04T02:08:18.739Z,63.88
2017-04-04T02:08:40.549Z,64.01
2017-04-04T02:10:28.687Z,64.17
2017-04-04T02:10:50.410Z,64.40
2017-04-04T02:11:21.654Z,64.05
2017-04-04T02:11:43.454Z,63.71
2017-04-04T02:12:05.206Z,63.05
2017-04-04T02:12:36.438Z,63.05
2017-04-04T02:12:58.220Z,63.22
2017-04-04T02:13:19.930Z,63.10
2017-04-04T02:13:41.640Z,63.40
2017-04-04T02:14:03.343Z,63.41
2017-04-04T02:14:29.921Z,63.89
2017-04-04T02:14:51.634Z,64.58
2017-04-04T02:15:50.023Z,65.71
2017-04-04T02:16:57.310Z,64.53
2017-04-04T02:17:19.153Z,64.47
2017-04-04T02:17:40.849Z,64.39
2017-04-04T02:18:12.096Z,64.17
2017-04-04T02:18:33.860Z,64.62
2017-04-04T02:18:55.556Z,65.35
2017-04-04T02:19:17.269Z,65.86
2017-04-04T02:19:38.965Z,65.50
2017-04-04T02:20:00.754Z,65.17
2017-04-04T02:20:32.015Z,64.54
2017-04-04T02:20:53.715Z,64.80
2017-04-04T02:21:15.422Z,64.57
2017-04-04T02:21:37.133Z,64.51
2017-04-04T02:21:58.828Z,64.23
2017-04-04T02:22:20.576Z,64.09
2017-04-04T02:22:47.081Z,64.25
2017-04-04T02:23:08.805Z,64.16
2017-04-04T02:23:30.497Z,64.04
2017-04-04T02:23:57.095Z,64.08
2017-04-04T02:24:18.824Z,64.12
2017-04-04T02:24:40.520Z,64.20
2017-04-04T02:25:07.007Z,63.90
2017-04-04T02:25:28.788Z,63.28
2017-04-04T02:25:50.505Z,63.36
2017-04-04T02:26:17.060Z,64.17
2017-04-04T02:26:38.844Z,64.63
2017-04-04T02:27:00.642Z,65.08
2017-04-04T02:27:31.900Z,65.11
2017-04-04T02:27:53.587Z,65.27
2017-04-04T02:28:56.166Z,65.28
2017-04-04T02:29:27.412Z,66.39
2017-04-04T02:29:49.104Z,66.15
2017-04-04T02:30:10.915Z,65.84
2017-04-04T02:30:32.658Z,65.64
2017-04-04T02:30:54.372Z,65.43
2017-04-04T02:31:16.072Z,64.98
2017-04-04T02:31:37.894Z,64.93
2017-04-04T02:31:59.579Z,64.54
2017-04-04T02:32:21.310Z,64.73
2017-04-04T02:32:47.875Z,64.80
2017-04-04T02:33:09.570Z,64.78
2017-04-04T02:33:36.046Z,64.80
2017-04-04T02:33:57.770Z,64.94
2017-04-04T02:34:24.361Z,64.64
2017-04-04T02:34:46.073Z,64.42
2017-04-04T02:35:07.795Z,64.24
2017-04-04T02:36:15.164Z,64.23
2017-04-04T02:36:36.882Z,64.08
2017-04-04T02:36:58.581Z,64.14
2017-04-04T02:37:29.836Z,63.85
2017-04-04T02:37:51.623Z,63.97
2017-04-04T02:38:13.329Z,64.06
2017-04-04T02:38:44.583Z,64.09
2017-04-04T02:39:06.391Z,63.94
2017-04-04T02:39:28.116Z,63.95
2017-04-04T02:39:49.824Z,64.04
2017-04-04T02:40:11.625Z,63.85
2017-04-04T02:40:33.436Z,64.02
2017-04-04T02:40:55.237Z,64.26
2017-04-04T02:41:16.972Z,64.35
2017-04-04T02:41:38.686Z,64.59
2017-04-04T02:42:00.495Z,64.46
2017-04-04T02:42:22.201Z,64.68
2017-04-04T02:42:43.938Z,64.46
2017-04-04T02:43:42.310Z,64.23
2017-04-04T02:44:44.910Z,63.79
2017-04-04T02:45:06.654Z,63.60
2017-04-04T02:45:37.907Z,63.61
2017-04-04T02:45:59.701Z,63.46
2017-04-04T02:46:21.426Z,63.51
2017-04-04T02:46:52.677Z,64.10
2017-04-04T02:47:14.492Z,64.02
2017-04-04T02:47:40.985Z,63.91
2017-04-04T02:48:02.719Z,63.93
2017-04-04T02:48:24.509Z,64.06
2017-04-04T02:48:50.991Z,63.97
2017-04-04T02:49:12.703Z,63.96
2017-04-04T02:50:20.057Z,63.99
2017-04-04T02:50:41.753Z,63.70
2017-04-04T02:51:03.435Z,63.73
2017-04-04T02:51:30.023Z,63.58
2017-04-04T02:51:51.757Z,63.69
2017-04-04T02:52:13.469Z,63.63
2017-04-04T02:52:35.177Z,64.07
2017-04-04T02:52:56.960Z,64.44
2017-04-04T02:53:23.435Z,64.62
2017-04-04T02:53:45.134Z,64.33
2017-04-04T02:54:11.689Z,64.42
2017-04-04T02:54:33.377Z,64.05
2017-04-04T02:54:59.856Z,64.24
2017-04-04T02:55:26.407Z,64.18
2017-04-04T02:55:48.119Z,64.55
2017-04-04T02:56:14.596Z,64.52
2017-04-04T02:56:36.301Z,64.36
2017-04-04T02:57:02.860Z,63.95
2017-04-04T02:57:24.582Z,63.71
2017-04-04T02:57:55.843Z,63.98
2017-04-04T02:58:17.654Z,64.24
2017-04-04T02:58:39.352Z,64.44
2017-04-04T02:59:05.831Z,64.63
2017-04-04T02:59:27.624Z,65.21
2017-04-04T02:59:49.317Z,65.09
2017-04-04T03:00:11.040Z,64.86
2017-04-04T03:00:32.734Z,64.39
2017-04-04T03:00:54.527Z,64.10
2017-04-04T03:01:16.237Z,64.12
2017-04-04T03:01:40.869Z,64.38
2017-04-04T03:02:02.675Z,64.69
2017-04-04T03:02:24.385Z,64.82
2017-04-04T03:02:46.185Z,64.60
2017-04-04T03:03:17.439Z,64.07
2017-04-04T03:03:39.139Z,64.03
2017-04-04T03:04:37.515Z,63.96
2017-04-04T03:05:40.115Z,63.75
2017-04-04T03:06:01.819Z,63.98
2017-04-04T03:06:23.521Z,64.32
2017-04-04T03:06:54.772Z,64.34
2017-04-04T03:07:16.584Z,64.27
2017-04-04T03:07:38.300Z,64.27
2017-04-04T03:08:40.903Z,64.08
2017-04-04T03:09:12.170Z,64.17
2017-04-04T03:09:33.873Z,63.87
2017-04-04T03:10:05.262Z,63.52
2017-04-04T03:10:29.568Z,63.65
2017-04-04T03:10:56.059Z,63.81
2017-04-04T03:11:17.825Z,64.12
2017-04-04T03:11:44.301Z,64.16
2017-04-04T03:12:06.030Z,64.21
2017-04-04T03:12:32.554Z,64.12
2017-04-04T03:13:30.816Z,64.45
2017-04-04T03:14:29.182Z,64.53
2017-04-04T03:15:27.400Z,64.12
2017-04-04T03:15:53.890Z,64.53
2017-04-04T03:16:52.224Z,64.71
2017-04-04T03:17:13.957Z,64.58
2017-04-04T03:17:40.443Z,64.29
2017-04-04T03:18:02.147Z,64.18
2017-04-04T03:18:23.904Z,64.09
2017-04-04T03:18:45.596Z,64.30
2017-04-04T03:19:07.311Z,64.16
2017-04-04T03:19:33.856Z,64.15
2017-04-04T03:19:55.552Z,64.63
2017-04-04T03:20:26.835Z,65.19
2017-04-04T03:20:48.570Z,65.33
2017-04-04T03:21:17.930Z,65.70
2017-04-04T03:21:41.844Z,65.92
2017-04-04T03:22:13.123Z,66.43
2017-04-04T03:22:34.916Z,66.21
2017-04-04T03:23:01.389Z,65.95
2017-04-04T03:23:23.086Z,65.61
2017-04-04T03:23:49.700Z,65.30
2017-04-04T03:24:11.401Z,65.50
2017-04-04T03:24:33.102Z,65.23
2017-04-04T03:25:40.392Z,65.90
2017-04-04T03:26:02.087Z,65.84
2017-04-04T03:26:33.477Z,65.93
2017-04-04T03:26:55.100Z,65.81
2017-04-04T03:27:21.604Z,65.82
2017-04-04T03:27:43.300Z,65.68
2017-04-04T03:28:09.852Z,65.55
2017-04-04T03:28:31.553Z,65.55
2017-04-04T03:28:58.041Z,66.07
2017-04-04T03:29:19.727Z,65.80
2017-04-04T03:29:46.269Z,65.85
2017-04-04T03:30:07.975Z,65.38
2017-04-04T03:30:29.693Z,65.17
2017-04-04T03:31:01.077Z,65.31
2017-04-04T03:31:27.547Z,65.05
2017-04-04T03:31:54.122Z,64.75
2017-04-04T03:32:15.880Z,64.62
2017-04-04T03:32:37.680Z,64.99
2017-04-04T03:33:40.194Z,65.84
2017-04-04T03:34:01.889Z,65.79
2017-04-04T03:34:28.409Z,65.29
2017-04-04T03:34:50.169Z,65.27
2017-04-04T03:35:52.683Z,65.21
2017-04-04T03:36:24.071Z,65.06
2017-04-04T03:36:45.708Z,65.01
2017-04-04T03:37:12.194Z,64.96
2017-04-04T03:37:33.889Z,64.82
2017-04-04T03:38:00.469Z,66.14
2017-04-04T03:38:22.192Z,66.37
2017-04-04T03:38:48.669Z,66.22
2017-04-04T03:39:10.364Z,66.54
2017-04-04T03:39:36.896Z,67.35
2017-04-04T03:39:58.590Z,67.75
2017-04-04T03:40:25.059Z,67.14
2017-04-04T03:40:46.760Z,66.88
2017-04-04T03:41:08.558Z,66.62
2017-04-04T03:41:35.086Z,66.49
2017-04-04T03:41:56.780Z,66.46
2017-04-04T03:42:23.322Z,66.70
2017-04-04T03:42:45.046Z,66.95
2017-04-04T03:43:11.558Z,67.42
2017-04-04T03:43:33.263Z,67.48
2017-04-04T03:43:59.790Z,67.33
2017-04-04T03:44:26.323Z,67.45
2017-04-04T03:44:52.858Z,67.20
2017-04-04T03:45:14.689Z,66.60
2017-04-04T03:45:36.386Z,66.41
2017-04-04T03:46:34.695Z,65.80
2017-04-04T03:47:42.000Z,65.73
2017-04-04T03:48:03.754Z,66.40
2017-04-04T03:48:25.466Z,66.96
2017-04-04T03:48:51.944Z,67.78
2017-04-04T03:49:13.653Z,68.59
2017-04-04T03:49:35.456Z,69.37
2017-04-04T03:50:01.936Z,69.33
2017-04-04T03:50:23.653Z,69.46
2017-04-04T03:51:30.946Z,68.57
2017-04-04T03:51:52.631Z,68.39
2017-04-04T03:52:24.022Z,67.67
2017-04-04T03:52:45.756Z,68.00
2017-04-04T03:53:17.033Z,68.45
2017-04-04T03:53:38.809Z,67.97
2017-04-04T03:54:05.281Z,67.76
2017-04-04T03:54:26.978Z,67.51
2017-04-04T03:54:53.528Z,67.33
2017-04-04T03:55:15.203Z,67.11
2017-04-04T03:55:41.692Z,66.63
2017-04-04T03:56:03.490Z,66.44
2017-04-04T03:56:30.052Z,65.96
2017-04-04T03:56:51.854Z,65.86
2017-04-04T03:57:23.249Z,66.12
2017-04-04T03:57:44.974Z,66.39
2017-04-04T03:58:46.310Z,67.72
2017-04-04T03:59:48.821Z,68.80
2017-04-04T04:00:15.353Z,68.24
2017-04-04T04:00:37.061Z,68.00
2017-04-04T04:00:58.792Z,67.47
2017-04-04T04:01:20.515Z,67.14
2017-04-04T04:01:47.246Z,67.24
2017-04-04T04:02:08.944Z,67.03
2017-04-04T04:02:35.426Z,66.68
2017-04-04T04:02:57.126Z,66.24
2017-04-04T04:03:23.662Z,66.12
2017-04-04T04:03:45.374Z,65.90
2017-04-04T04:04:11.842Z,65.67
2017-04-04T04:04:33.575Z,65.70
2017-04-04T04:04:55.369Z,65.72
2017-04-04T04:06:21.289Z,65.64
2017-04-04T04:06:42.985Z,65.75
2017-04-04T04:07:04.675Z,65.87
2017-04-04T04:07:26.366Z,65.71
2017-04-04T04:07:49.160Z,65.37
2017-04-04T04:08:10.884Z,65.51
2017-04-04T04:08:37.391Z,65.75
2017-04-04T04:08:59.124Z,66.30
2017-04-04T04:09:25.670Z,66.26
2017-04-04T04:09:47.355Z,66.44
2017-04-04T04:10:09.058Z,66.41
2017-04-04T04:10:35.633Z,66.07
2017-04-04T04:10:57.326Z,66.03
2017-04-04T04:11:19.050Z,65.78
2017-04-04T04:11:45.544Z,65.74
2017-04-04T04:12:07.253Z,65.46
2017-04-04T04:12:38.531Z,65.70
2017-04-04T04:13:00.194Z,65.59
2017-04-04T04:13:22.003Z,65.92
2017-04-04T04:13:48.489Z,65.85
2017-04-04T04:14:10.185Z,65.91
2017-04-04T04:14:41.440Z,66.34
2017-04-04T04:15:03.140Z,66.13
2017-04-04T04:15:34.416Z,65.70
2017-04-04T04:15:56.165Z,65.71
2017-04-04T04:16:27.444Z,66.14
2017-04-04T04:16:49.121Z,65.66
2017-04-04T04:17:20.516Z,65.62
2017-04-04T04:17:42.150Z,65.40
2017-04-04T04:18:13.445Z,65.84
2017-04-04T04:18:35.248Z,66.25
2017-04-04T04:19:06.510Z,66.49
2017-04-04T04:19:28.209Z,67.34
2017-04-04T04:19:49.978Z,67.28
2017-04-04T04:20:16.462Z,66.88
2017-04-04T04:20:38.167Z,66.74
2017-04-04T04:21:04.714Z,66.64
2017-04-04T04:21:26.441Z,66.55
2017-04-04T04:21:57.734Z,66.75
2017-04-04T04:22:19.529Z,67.04
2017-04-04T04:23:26.795Z,66.89
2017-04-04T04:23:48.559Z,66.64
2017-04-04T04:24:15.035Z,66.62
2017-04-04T04:24:36.746Z,67.73
2017-04-04T04:25:00.735Z,67.84
2017-04-04T04:25:22.377Z,67.86
2017-04-04T04:25:44.182Z,67.76
2017-04-04T04:26:15.467Z,68.66
2017-04-04T04:26:37.140Z,69.01
2017-04-04T04:27:03.702Z,68.40
2017-04-04T04:27:25.405Z,67.84
2017-04-04T04:27:51.888Z,67.79
2017-04-04T04:28:13.705Z,67.83
2017-04-04T04:29:16.206Z,67.19
2017-04-04T04:29:37.914Z,67.12
2017-04-04T04:29:59.657Z,66.93
2017-04-04T04:30:30.907Z,66.99
2017-04-04T04:30:52.702Z,67.36
2017-04-04T04:31:19.213Z,67.31
2017-04-04T04:31:40.943Z,67.58
2017-04-04T04:32:07.472Z,67.42
2017-04-04T04:32:29.195Z,67.26
2017-04-04T04:32:55.725Z,68.11
2017-04-04T04:33:17.447Z,68.59
2017-04-04T04:33:44.038Z,69.11
2017-04-04T04:34:05.799Z,69.32
2017-04-04T04:35:08.317Z,69.65
2017-04-04T04:35:30.036Z,70.12
2017-04-04T04:36:28.318Z,69.13
2017-04-04T04:36:50.055Z,69.39
2017-04-04T04:37:11.772Z,69.96
2017-04-04T04:37:38.312Z,70.39
2017-04-04T04:38:00.038Z,70.32
2017-04-04T04:38:21.762Z,69.81
2017-04-04T04:38:53.150Z,69.01
2017-04-04T04:39:14.790Z,68.73
2017-04-04T04:39:46.071Z,69.13
2017-04-04T04:40:07.830Z,69.56
2017-04-04T04:40:39.109Z,68.74
2017-04-04T04:41:00.889Z,68.18
2017-04-04T04:41:32.312Z,67.68
2017-04-04T04:41:53.944Z,67.63
2017-04-04T04:42:25.244Z,67.90
2017-04-04T04:42:47.006Z,67.97
2017-04-04T04:43:08.719Z,68.15
2017-04-04T04:43:35.202Z,68.34
2017-04-04T04:43:56.996Z,69.01
2017-04-04T04:44:57.465Z,70.58
2017-04-04T04:45:28.724Z,70.07
2017-04-04T04:45:50.524Z,69.41
2017-04-04T04:46:17.007Z,69.21
2017-04-04T04:46:38.741Z,68.89
2017-04-04T04:47:00.530Z,68.61
2017-04-04T04:47:31.811Z,68.34
2017-04-04T04:47:53.510Z,68.35
2017-04-04T04:48:24.908Z,67.65
2017-04-04T04:48:46.555Z,67.93
2017-04-04T04:49:13.034Z,68.06
2017-04-04T04:49:34.752Z,67.73
2017-04-04T04:50:06.126Z,67.15
2017-04-04T04:50:27.832Z,66.90
2017-04-04T04:50:59.096Z,66.45
2017-04-04T04:51:20.859Z,66.30
2017-04-04T04:52:23.359Z,65.99
2017-04-04T04:52:54.752Z,66.18
2017-04-04T04:53:16.392Z,66.23
2017-04-04T04:53:38.100Z,66.28
2017-04-04T04:53:59.811Z,66.31
2017-04-04T04:54:21.585Z,66.52
2017-04-04T04:54:43.304Z,66.37
2017-04-04T04:55:05.008Z,66.26
2017-04-04T04:55:26.707Z,65.90
2017-04-04T04:55:53.311Z,66.08
2017-04-04T04:56:15.021Z,66.13
2017-04-04T04:56:36.726Z,66.72
2017-04-04T04:57:08.116Z,67.24
2017-04-04T04:57:29.750Z,67.56
2017-04-04T04:58:01.102Z,68.95
2017-04-04T04:58:22.862Z,69.50
2017-04-04T04:58:44.575Z,69.95
2017-04-04T04:59:06.286Z,69.95
2017-04-04T04:59:28.068Z,70.35
2017-04-04T05:00:30.562Z,70.14
2017-04-04T05:01:37.866Z,70.26
2017-04-04T05:01:59.613Z,70.04
2017-04-04T05:02:26.113Z,69.49
2017-04-04T05:02:47.905Z,68.65
2017-04-04T05:03:50.448Z,67.79
2017-04-04T05:04:12.316Z,67.32
2017-04-04T05:05:05.367Z,67.39
2017-04-04T05:05:36.783Z,67.10
2017-04-04T05:05:58.492Z,66.69
2017-04-04T05:06:29.773Z,66.88
2017-04-04T05:06:51.535Z,67.26
2017-04-04T05:07:13.275Z,67.31
2017-04-04T05:07:39.752Z,67.62
2017-04-04T05:08:01.513Z,68.13
2017-04-04T05:08:23.227Z,68.71
2017-04-04T05:08:44.956Z,69.80
2017-04-04T05:09:06.686Z,70.15
2017-04-04T05:10:05.251Z,69.33
2017-04-04T05:10:31.734Z,69.19
2017-04-04T05:10:58.279Z,68.85
2017-04-04T05:11:20.019Z,68.67
2017-04-04T05:11:41.960Z,68.21
2017-04-04T05:12:08.527Z,68.02
2017-04-04T05:12:30.315Z,68.08
2017-04-04T05:13:01.586Z,67.99
2017-04-04T05:14:05.224Z,68.37
2017-04-04T05:14:26.958Z,68.87
2017-04-04T05:14:48.691Z,69.48
2017-04-04T05:15:10.390Z,69.91
2017-04-04T05:15:32.110Z,69.73
2017-04-04T05:15:53.859Z,69.38
2017-04-04T05:16:56.375Z,68.58
2017-04-04T05:17:18.137Z,68.26
2017-04-04T05:17:39.887Z,67.80
2017-04-04T05:18:01.634Z,67.77
2017-04-04T05:18:32.929Z,67.45
2017-04-04T05:18:55.776Z,67.37
2017-04-04T05:19:58.324Z,67.26
2017-04-04T05:20:20.061Z,67.39
2017-04-04T05:20:41.816Z,67.43
2017-04-04T05:21:03.598Z,68.50
2017-04-04T05:21:25.459Z,68.88
2017-04-04T05:21:47.207Z,69.27
2017-04-04T05:22:54.510Z,69.38
2017-04-04T05:23:16.232Z,69.78
2017-04-04T05:23:37.976Z,70.50
2017-04-04T05:24:04.457Z,71.34
2017-04-04T05:24:26.238Z,71.41
2017-04-04T05:24:52.761Z,70.89
2017-04-04T05:25:14.537Z,70.80
2017-04-04T05:25:41.049Z,70.96
2017-04-04T05:26:03.866Z,71.34
2017-04-04T05:26:30.508Z,70.71
2017-04-04T05:26:52.313Z,70.36
2017-04-04T05:27:18.843Z,70.08
2017-04-04T05:27:40.634Z,70.21
2017-04-04T05:28:07.156Z,70.54
2017-04-04T05:28:28.929Z,70.95
2017-04-04T05:28:50.742Z,70.49
2017-04-04T05:29:17.443Z,70.28
2017-04-04T05:29:39.216Z,69.73
2017-04-04T05:30:41.729Z,70.04
2017-04-04T05:31:44.259Z,70.08
2017-04-04T05:33:16.566Z,72.21
2017-04-04T05:33:38.271Z,72.55
2017-04-04T05:34:45.668Z,71.32
2017-04-04T05:35:07.454Z,71.55
2017-04-04T05:35:33.955Z,71.89
2017-04-04T05:35:55.703Z,71.54
2017-04-04T05:37:05.707Z,71.11
2017-04-04T05:37:27.418Z,71.73
2017-04-04T05:38:29.925Z,71.67
2017-04-04T05:39:02.147Z,71.33
2017-04-04T05:39:23.983Z,70.49
2017-04-04T05:39:50.450Z,70.05
2017-04-04T05:40:12.288Z,69.72
2017-04-04T05:40:34.106Z,69.61
2017-04-04T05:41:05.365Z,69.63
2017-04-04T05:41:27.073Z,70.04
2017-04-04T05:41:49.083Z,70.17
2017-04-04T05:42:42.165Z,69.84
2017-04-04T05:43:03.880Z,69.83
2017-04-04T05:43:25.619Z,69.69
2017-04-04T05:43:47.416Z,70.02
2017-04-04T05:44:09.127Z,69.56
2017-04-04T05:44:30.922Z,69.61
2017-04-04T05:44:52.815Z,70.30
2017-04-04T05:45:14.558Z,70.23
2017-04-04T05:46:17.073Z,70.96
2017-04-04T05:46:38.868Z,70.86
2017-04-04T05:47:00.596Z,70.36
2017-04-04T05:47:22.301Z,69.80
2017-04-04T05:47:48.784Z,69.35
2017-04-04T05:48:10.616Z,69.43
2017-04-04T05:48:41.877Z,69.15
2017-04-04T05:49:03.608Z,69.30
2017-04-04T05:49:30.116Z,69.36
2017-04-04T05:49:51.814Z,69.24
2017-04-04T05:50:18.304Z,69.11
2017-04-04T05:51:22.671Z,69.12
2017-04-04T05:52:21.829Z,69.23
2017-04-04T05:52:46.389Z,69.38
2017-04-04T05:53:53.776Z,70.25
2017-04-04T05:54:15.485Z,70.17
2017-04-04T05:54:37.248Z,69.99
2017-04-04T05:55:08.508Z,70.16
2017-04-04T05:55:30.267Z,69.66
2017-04-04T05:55:57.021Z,69.34
2017-04-04T05:56:18.770Z,69.12
2017-04-04T05:56:45.261Z,69.32
2017-04-04T05:57:06.974Z,69.23
2017-04-04T05:58:05.463Z,69.00
2017-04-04T05:58:32.034Z,68.94
2017-04-04T05:58:58.573Z,69.12
2017-04-04T05:59:20.295Z,69.01
2017-04-04T05:59:42.099Z,68.98
2017-04-04T06:00:08.566Z,69.12
2017-04-04T06:00:30.345Z,68.78
2017-04-04T06:00:52.053Z,68.51
2017-04-04T06:01:18.631Z,68.65
2017-04-04T06:01:42.720Z,68.76